Time;durP1;ratioP1;P1;durP2;ratioP2;P2;SDS_P1;SDS_P2;PMS_P1;PMS_P2;Temp;Humidity;BMP_temperature;BMP_pressure;BME280_temperature;BME280_humidity;BME280_pressure;Samples;Min_cycle;Max_cycle;Signal;HPM_P1;HPM_P2
2022/03/28 00:02:13;;;;;;;114.55;59.45;;;6.40;99.90;;;;;;5054966;28;20037;-76
2022/03/28 00:04:40;;;;;;;91.00;48.45;;;6.40;99.90;;;;;;5036486;28;20053;-77
2022/03/28 00:07:08;;;;;;;100.22;51.40;;;6.40;99.90;;;;;;5035775;28;20069;-77
2022/03/28 00:09:36;;;;;;;87.55;47.15;;;6.40;99.90;;;;;;5035608;28;20041;-76
2022/03/28 00:12:04;;;;;;;86.28;47.88;;;6.40;99.90;;;;;;5035684;28;20350;-76
2022/03/28 00:14:32;;;;;;;79.63;43.05;;;6.40;99.90;;;;;;5035521;28;20444;-76
2022/03/28 00:17:01;;;;;;;93.22;45.22;;;6.40;99.90;;;;;;5034284;28;20049;-75
2022/03/28 00:19:28;;;;;;;82.28;45.70;;;6.40;99.90;;;;;;5035568;28;20041;-76
2022/03/28 00:21:56;;;;;;;90.20;46.88;;;6.30;99.90;;;;;;5034038;28;20069;-76
2022/03/28 00:24:24;;;;;;;91.60;49.80;;;6.30;99.90;;;;;;5035218;28;20045;-76
2022/03/28 00:26:52;;;;;;;88.28;50.13;;;6.30;99.90;;;;;;5052497;28;20557;-77
2022/03/28 00:29:19;;;;;;;86.03;45.97;;;6.20;99.90;;;;;;5053587;28;20522;-78
2022/03/28 00:31:47;;;;;;;79.13;42.50;;;6.20;99.90;;;;;;5055071;28;20123;-76
2022/03/28 00:34:21;;;;;;;73.88;40.88;;;6.20;99.90;;;;;;5053871;28;20073;-77
2022/03/28 00:36:50;;;;;;;69.15;36.53;;;6.20;99.90;;;;;;5055382;28;20057;-76
2022/03/28 00:39:19;;;;;;;66.50;35.55;;;6.10;99.90;;;;;;5050044;28;20049;-76
2022/03/28 00:41:47;;;;;;;61.60;34.97;;;6.00;99.90;;;;;;5056881;28;20053;-75
2022/03/28 00:44:15;;;;;;;57.95;33.28;;;6.00;99.90;;;;;;5056128;28;20059;-77
2022/03/28 00:46:43;;;;;;;58.60;32.20;;;6.10;99.90;;;;;;5055918;28;20045;-77
2022/03/28 00:49:10;;;;;;;58.90;33.05;;;6.00;99.90;;;;;;5056940;28;20116;-77
2022/03/28 00:51:40;;;;;;;54.83;32.97;;;5.90;99.90;;;;;;5071824;28;20132;-76
2022/03/28 00:54:08;;;;;;;56.10;31.48;;;5.80;99.90;;;;;;5072339;28;20060;-76
2022/03/28 00:56:38;;;;;;;61.13;34.65;;;5.70;99.90;;;;;;5046438;28;20045;-77
2022/03/28 00:59:06;;;;;;;70.70;36.60;;;5.70;99.90;;;;;;5034113;28;20111;-76
2022/03/28 01:01:34;;;;;;;65.30;36.10;;;5.60;99.90;;;;;;5040827;28;20053;-76
2022/03/28 01:04:04;;;;;;;75.05;42.33;;;5.70;99.90;;;;;;5034354;28;20053;-77
2022/03/28 01:06:33;;;;;;;76.75;41.97;;;5.70;99.90;;;;;;5038299;28;20068;-77
2022/03/28 01:09:02;;;;;;;83.00;43.47;;;5.70;99.90;;;;;;5053694;28;20067;-76
2022/03/28 01:11:31;;;;;;;80.15;45.80;;;5.70;99.90;;;;;;5038029;28;20041;-76
2022/03/28 01:14:00;;;;;;;77.38;43.53;;;5.70;99.90;;;;;;5033138;28;20452;-77
2022/03/28 01:16:29;;;;;;;81.00;41.05;;;5.60;99.90;;;;;;5030552;28;20038;-76
2022/03/28 01:18:56;;;;;;;68.45;36.20;;;5.50;1.00;;;;;;5030960;28;20045;-76
2022/03/28 01:21:25;;;;;;;64.90;35.13;;;5.40;1.00;;;;;;5032911;28;20052;-75
2022/03/28 01:23:52;;;;;;;56.58;30.23;;;5.40;1.00;;;;;;5032867;28;20041;-76
2022/03/28 01:26:20;;;;;;;58.65;30.85;;;5.40;1.00;;;;;;5030920;28;20547;-77
2022/03/28 01:28:48;;;;;;;64.35;34.92;;;5.40;1.00;;;;;;5013417;28;20173;-76
2022/03/28 01:31:15;;;;;;;63.72;35.58;;;5.40;1.00;;;;;;5013966;28;20073;-77
2022/03/28 01:33:43;;;;;;;51.85;29.95;;;5.40;1.00;;;;;;5028401;28;20048;-77
2022/03/28 01:36:10;;;;;;;54.65;32.22;;;5.40;1.00;;;;;;5034131;28;20048;-77
2022/03/28 01:38:40;;;;;;;57.47;31.17;;;5.30;1.00;;;;;;5034954;28;20458;-77
2022/03/28 01:41:08;;;;;;;56.50;32.33;;;5.20;1.00;;;;;;5033645;28;20516;-75
2022/03/28 01:43:35;;;;;;;60.45;34.63;;;5.10;1.00;;;;;;5032106;28;20041;-77
2022/03/28 01:46:03;;;;;;;63.78;34.20;;;5.10;1.00;;;;;;5033240;28;20099;-77
2022/03/28 01:48:32;;;;;;;63.55;33.70;;;5.20;1.00;;;;;;5033621;28;20069;-77
2022/03/28 01:50:59;;;;;;;66.07;38.08;;;5.30;1.00;;;;;;5033923;28;20052;-76
2022/03/28 01:53:27;;;;;;;68.88;38.13;;;5.30;1.00;;;;;;5033638;28;20369;-77
2022/03/28 01:56:06;;;;;;;;;;;;;;;;;;;;;
2022/03/28 01:58:44;;;;;;;61.13;34.38;;;5.10;1.00;;;;;;4992200;28;20058;-76
2022/03/28 02:01:12;;;;;;;71.03;38.28;;;5.00;1.00;;;;;;4975820;28;20050;-77
2022/03/28 02:03:44;;;;;;;62.97;34.03;;;5.00;1.00;;;;;;4975920;28;20497;-77
2022/03/28 02:06:11;;;;;;;53.70;30.73;;;4.90;1.00;;;;;;4975218;28;20441;-77
2022/03/28 02:08:39;;;;;;;68.50;35.13;;;4.90;1.00;;;;;;4973491;28;20057;-76
2022/03/28 02:11:08;;;;;;;58.78;32.72;;;4.90;1.00;;;;;;4963015;28;20098;-76
2022/03/28 02:13:35;;;;;;;61.55;32.33;;;4.90;1.00;;;;;;4996097;28;20537;-77
2022/03/28 02:16:03;;;;;;;62.47;33.67;;;5.00;1.00;;;;;;5001740;28;20042;-77
2022/03/28 02:18:30;;;;;;;60.28;32.13;;;5.00;1.00;;;;;;4985565;28;20050;-77
2022/03/28 02:20:58;;;;;;;60.95;34.22;;;4.90;1.00;;;;;;4985715;28;20105;-77
2022/03/28 02:23:25;;;;;;;66.43;35.53;;;4.90;1.00;;;;;;5021653;28;20050;-77
2022/03/28 02:25:53;;;;;;;67.88;35.42;;;4.90;1.00;;;;;;5036575;28;20057;-76
2022/03/28 02:28:24;;;;;;;86.35;43.38;;;4.80;1.00;;;;;;5039316;28;20544;-76
2022/03/28 02:30:53;;;;;;;94.40;48.80;;;4.80;1.00;;;;;;5039064;28;20068;-76
2022/03/28 02:33:21;;;;;;;90.10;46.47;;;4.70;1.00;;;;;;5037333;28;20106;-76
2022/03/28 02:35:49;;;;;;;89.18;44.63;;;4.70;1.00;;;;;;5039312;28;20107;-76
2022/03/28 02:38:17;;;;;;;85.53;44.20;;;4.70;1.00;;;;;;5039126;28;20059;-76
2022/03/28 02:40:44;;;;;;;63.42;35.25;;;4.80;1.00;;;;;;5035666;28;20061;-77
2022/03/28 02:43:11;;;;;;;64.80;34.95;;;4.70;1.00;;;;;;5037028;28;20493;-77
2022/03/28 02:45:41;;;;;;;67.68;36.25;;;4.60;1.00;;;;;;5037629;28;20049;-78
2022/03/28 02:48:09;;;;;;;84.35;42.55;;;4.60;1.00;;;;;;5036694;28;20042;-77
2022/03/28 02:50:36;;;;;;;59.85;31.60;;;4.60;1.00;;;;;;5037343;28;20052;-77
2022/03/28 02:53:04;;;;;;;85.18;42.83;;;4.50;1.00;;;;;;5036964;28;20045;-77
2022/03/28 02:55:32;;;;;;;88.50;45.17;;;4.40;1.00;;;;;;5036974;28;20049;-78
2022/03/28 02:58:00;;;;;;;84.25;44.47;;;4.40;1.00;;;;;;5035971;28;20048;-77
2022/03/28 03:00:28;;;;;;;88.38;41.97;;;4.40;1.00;;;;;;5037314;28;20041;-76
2022/03/28 03:02:58;;;;;;;73.82;39.03;;;4.40;1.00;;;;;;5036511;28;20046;-76
2022/03/28 03:05:25;;;;;;;69.35;39.10;;;4.40;1.00;;;;;;5035802;28;20038;-77
2022/03/28 03:07:53;;;;;;;69.03;37.95;;;4.40;1.00;;;;;;5035743;28;20049;-77
2022/03/28 03:10:21;;;;;;;67.63;35.35;;;4.40;1.00;;;;;;5037058;28;20080;-76
2022/03/28 03:12:48;;;;;;;64.07;35.20;;;4.50;1.00;;;;;;5036690;28;20583;-77
2022/03/28 03:15:16;;;;;;;64.20;35.72;;;4.50;1.00;;;;;;5035479;28;20061;-77
2022/03/28 03:17:44;;;;;;;65.47;36.35;;;4.40;1.00;;;;;;5035631;28;20049;-77
2022/03/28 03:20:13;;;;;;;66.93;34.45;;;4.40;1.00;;;;;;5035547;28;20065;-77
2022/03/28 03:22:42;;;;;;;67.93;34.25;;;4.30;1.00;;;;;;5036162;28;20510;-77
2022/03/28 03:25:09;;;;;;;62.30;33.47;;;4.30;1.00;;;;;;5027373;28;20097;-76
2022/03/28 03:27:38;;;;;;;58.97;31.48;;;4.30;1.00;;;;;;5016602;28;20068;-77
2022/03/28 03:30:08;;;;;;;52.17;29.80;;;4.30;1.00;;;;;;5015468;28;20080;-77
2022/03/28 03:32:35;;;;;;;50.47;27.00;;;4.30;1.00;;;;;;5022609;28;20045;-77
2022/03/28 03:35:03;;;;;;;55.08;29.02;;;4.30;1.00;;;;;;5035870;28;20061;-76
2022/03/28 03:37:32;;;;;;;55.25;29.95;;;4.30;1.00;;;;;;5035874;28;20120;-76
2022/03/28 03:40:00;;;;;;;55.35;30.42;;;4.30;1.00;;;;;;5035881;28;20056;-77
2022/03/28 03:42:28;;;;;;;55.28;31.70;;;4.30;1.00;;;;;;5034180;28;20439;-76
2022/03/28 03:44:55;;;;;;;61.15;34.33;;;4.20;1.00;;;;;;5036133;28;20052;-76
2022/03/28 03:47:23;;;;;;;66.88;37.70;;;4.10;1.00;;;;;;5034408;28;20099;-77
2022/03/28 03:49:50;;;;;;;81.07;45.88;;;4.10;1.00;;;;;;5035816;28;20072;-76
2022/03/28 03:52:18;;;;;;;99.57;56.67;;;4.00;1.00;;;;;;5034536;28;20045;-76
2022/03/28 03:54:47;;;;;;;128.48;76.45;;;4.00;1.00;;;;;;5034766;28;20132;-76
2022/03/28 03:57:15;;;;;;;115.07;64.00;;;4.00;1.00;;;;;;5034630;28;20050;-76
2022/03/28 03:59:43;;;;;;;70.72;36.70;;;4.00;51.40;;;;;;5035030;28;20056;-76
2022/03/28 04:02:11;;;;;;;68.88;35.72;;;4.00;20.20;;;;;;5034307;28;20065;-77
2022/03/28 04:04:39;;;;;;;116.80;56.67;;;4.00;1.00;;;;;;5034207;28;20037;-78
2022/03/28 04:07:07;;;;;;;81.40;43.88;;;4.00;1.00;;;;;;5034287;28;20038;-77
2022/03/28 04:09:34;;;;;;;73.20;39.38;;;4.00;23.70;;;;;;5035546;28;20033;-77
2022/03/28 04:12:05;;;;;;;62.65;34.53;;;4.00;1.60;;;;;;5034499;28;20121;-77
2022/03/28 04:14:33;;;;;;;59.75;33.03;;;3.90;1.00;;;;;;5033986;28;20075;-77
2022/03/28 04:17:00;;;;;;;65.25;35.65;;;3.90;1.00;;;;;;5036172;28;20047;-76
2022/03/28 04:19:28;;;;;;;66.03;35.53;;;3.90;5.70;;;;;;5034940;28;20045;-76
2022/03/28 04:21:56;;;;;;;65.88;38.10;;;3.90;1.00;;;;;;5035393;28;20109;-76
2022/03/28 04:24:23;;;;;;;72.53;41.03;;;3.90;1.00;;;;;;5029954;28;20041;-76
2022/03/28 04:26:51;;;;;;;64.57;38.45;;;3.70;1.00;;;;;;5034212;28;20103;-77
2022/03/28 04:29:20;;;;;;;73.80;39.40;;;3.70;15.90;;;;;;5034154;28;20045;-77
2022/03/28 04:31:47;;;;;;;66.85;35.90;;;3.70;15.20;;;;;;5034886;28;20472;-77
2022/03/28 04:34:15;;;;;;;57.35;34.05;;;3.70;8.30;;;;;;5033471;28;20048;-77
2022/03/28 04:36:43;;;;;;;59.38;33.42;;;3.60;16.60;;;;;;5033490;28;20049;-77
2022/03/28 04:39:11;;;;;;;58.80;30.27;;;3.60;99.30;;;;;;5034268;28;20120;-77
2022/03/28 04:41:39;;;;;;;57.08;32.33;;;3.70;99.90;;;;;;5034518;28;20103;-77
2022/03/28 04:44:07;;;;;;;60.05;33.38;;;3.70;99.90;;;;;;5034635;28;20559;-77
2022/03/28 04:46:37;;;;;;;61.58;33.53;;;3.80;99.90;;;;;;5034881;28;20099;-78
2022/03/28 04:49:04;;;;;;;65.05;34.90;;;3.90;41.30;;;;;;5033059;28;20412;-77
2022/03/28 04:51:32;;;;;;;72.22;38.13;;;3.90;1.00;;;;;;5033582;28;20056;-77
2022/03/28 04:54:00;;;;;;;59.63;33.45;;;3.90;5.80;;;;;;5033470;28;20053;-77
2022/03/28 04:56:27;;;;;;;64.32;34.60;;;3.90;53.50;;;;;;5033524;28;20516;-77
2022/03/28 04:58:55;;;;;;;66.07;35.88;;;3.90;62.70;;;;;;5035111;28;20049;-77
2022/03/28 05:01:23;;;;;;;78.32;40.25;;;4.00;17.20;;;;;;5044466;28;20048;-75
2022/03/28 05:03:52;;;;;;;99.90;45.72;;;4.10;1.00;;;;;;5041767;28;20457;-77
2022/03/28 05:06:19;;;;;;;96.20;48.17;;;4.10;1.00;;;;;;5040918;28;20076;-77
2022/03/28 05:08:47;;;;;;;91.88;50.53;;;4.10;1.00;;;;;;5033164;28;20049;-76
2022/03/28 05:11:14;;;;;;;92.68;48.95;;;4.10;1.00;;;;;;5034495;28;20094;-77
2022/03/28 05:13:42;;;;;;;99.30;51.47;;;4.10;1.00;;;;;;5035049;28;20049;-77
2022/03/28 05:16:10;;;;;;;101.30;56.40;;;4.20;1.00;;;;;;5034979;28;20071;-77
2022/03/28 05:18:37;;;;;;;95.30;51.60;;;4.20;1.00;;;;;;5033924;28;20042;-78
2022/03/28 05:21:06;;;;;;;88.82;48.40;;;4.20;1.00;;;;;;5033391;28;20064;-77
2022/03/28 05:23:34;;;;;;;74.55;43.63;;;4.20;1.00;;;;;;5027212;28;20498;-77
2022/03/28 05:26:03;;;;;;;65.15;37.55;;;4.30;1.00;;;;;;5033161;28;20399;-76
2022/03/28 05:28:30;;;;;;;65.50;36.92;;;4.30;1.00;;;;;;5033529;28;20116;-78
2022/03/28 05:30:58;;;;;;;66.13;38.55;;;4.30;1.00;;;;;;5028577;28;20057;-77
2022/03/28 05:33:27;;;;;;;71.88;38.72;;;4.40;1.00;;;;;;5031938;28;20045;-76
2022/03/28 05:35:55;;;;;;;62.50;34.70;;;4.50;1.00;;;;;;5032399;28;20053;-76
2022/03/28 05:38:24;;;;;;;57.55;32.47;;;4.70;1.00;;;;;;5032763;28;20081;-76
2022/03/28 05:40:52;;;;;;;53.47;29.65;;;4.90;1.00;;;;;;5029964;28;20053;-78
2022/03/28 05:43:20;;;;;;;48.10;27.73;;;5.10;1.00;;;;;;5032133;28;20581;-76
2022/03/28 05:45:48;;;;;;;46.17;26.23;;;5.20;1.00;;;;;;5034122;28;20041;-77
2022/03/28 05:48:15;;;;;;;46.20;27.08;;;5.40;1.00;;;;;;5031457;28;20057;-78
2022/03/28 05:50:43;;;;;;;52.28;29.58;;;5.70;1.00;;;;;;5032857;28;20057;-77
2022/03/28 05:53:13;;;;;;;69.75;37.38;;;5.90;1.00;;;;;;5032774;28;20056;-78
2022/03/28 05:55:43;;;;;;;67.25;37.78;;;6.20;1.00;;;;;;5031203;28;20055;-77
2022/03/28 05:58:11;;;;;;;66.38;37.60;;;6.50;1.00;;;;;;5034314;28;20053;-77
2022/03/28 06:00:39;;;;;;;66.82;36.85;;;6.60;99.90;;;;;;5023207;28;20117;-76
2022/03/28 06:03:08;;;;;;;75.22;39.60;;;6.80;99.90;;;;;;5047685;28;20049;-79
2022/03/28 06:05:36;;;;;;;73.50;42.10;;;7.20;99.90;;;;;;5046961;28;20109;-78
2022/03/28 06:08:05;;;;;;;73.05;42.45;;;7.40;99.90;;;;;;5045010;28;20152;-78
2022/03/28 06:10:33;;;;;;;72.10;43.08;;;7.60;99.90;;;;;;5037038;28;20069;-77
2022/03/28 06:13:03;;;;;;;75.25;40.13;;;7.80;99.90;;;;;;5036492;28;20049;-79
2022/03/28 06:15:36;;;;;;;70.45;41.10;;;8.10;99.90;;;;;;5036249;28;20056;-77
2022/03/28 06:18:05;;;;;;;85.32;45.38;;;8.50;99.90;;;;;;5035734;28;20497;-77
2022/03/28 06:20:33;;;;;;;84.07;44.10;;;8.80;60.60;;;;;;5034421;28;20065;-78
2022/03/28 06:23:02;;;;;;;82.85;47.15;;;8.80;15.40;;;;;;5035297;28;20186;-79
2022/03/28 06:25:30;;;;;;;80.15;45.50;;;8.90;1.00;;;;;;5033712;28;20542;-78
2022/03/28 06:27:58;;;;;;;79.40;45.45;;;8.90;1.00;;;;;;5034700;28;20111;-77
2022/03/28 06:30:27;;;;;;;80.68;46.35;;;9.00;1.00;;;;;;5039759;28;20049;-76
2022/03/28 06:32:55;;;;;;;79.65;46.45;;;9.00;1.00;;;;;;5022045;28;20049;-79
2022/03/28 06:35:23;;;;;;;72.75;45.35;;;9.10;1.00;;;;;;5029671;28;20053;-77
2022/03/28 06:37:52;;;;;;;76.50;44.75;;;9.20;1.00;;;;;;5032378;28;20076;-76
2022/03/28 06:40:19;;;;;;;71.50;42.35;;;9.40;1.00;;;;;;5033192;28;20049;-77
2022/03/28 06:42:47;;;;;;;57.95;36.92;;;9.70;1.00;;;;;;5032725;28;20500;-78
2022/03/28 06:45:15;;;;;;;63.38;36.38;;;9.90;1.00;;;;;;5033611;28;20044;-77
2022/03/28 06:47:44;;;;;;;63.28;37.13;;;10.00;1.00;;;;;;5033517;28;20457;-78
2022/03/28 06:50:12;;;;;;;60.60;36.65;;;10.20;1.00;;;;;;5032131;28;20041;-78
2022/03/28 06:52:40;;;;;;;53.35;32.38;;;10.30;1.00;;;;;;5033936;28;20397;-77
2022/03/28 06:55:08;;;;;;;57.85;31.80;;;10.40;1.00;;;;;;5033863;28;20046;-77
2022/03/28 06:57:36;;;;;;;56.70;34.22;;;10.50;1.00;;;;;;5033626;28;20116;-77
2022/03/28 07:00:04;;;;;;;53.28;32.75;;;10.70;1.00;;;;;;5034556;28;20116;-78
2022/03/28 07:02:32;;;;;;;57.13;31.95;;;11.00;1.00;;;;;;5036182;28;20047;-77
2022/03/28 07:05:01;;;;;;;43.15;26.48;;;11.10;1.00;;;;;;5032254;28;20041;-77
2022/03/28 07:07:29;;;;;;;37.63;22.70;;;11.20;1.00;;;;;;5031125;28;20053;-77
2022/03/28 07:09:56;;;;;;;36.83;22.08;;;11.40;1.00;;;;;;5033053;28;20072;-77
2022/03/28 07:12:25;;;;;;;40.80;22.30;;;11.60;1.00;;;;;;5035647;28;20411;-77
2022/03/28 07:14:53;;;;;;;35.90;21.70;;;11.80;1.00;;;;;;5036106;28;20419;-77
2022/03/28 07:17:20;;;;;;;45.55;27.02;;;12.20;1.00;;;;;;5017824;28;20050;-76
2022/03/28 07:19:47;;;;;;;42.75;25.92;;;12.60;1.00;;;;;;5015599;28;20057;-77
2022/03/28 07:22:16;;;;;;;48.17;26.88;;;13.00;1.00;;;;;;5027173;28;20483;-77
2022/03/28 07:24:44;;;;;;;40.33;26.75;;;13.30;1.00;;;;;;5056034;28;20384;-78
2022/03/28 07:27:11;;;;;;;43.03;26.70;;;13.60;1.00;;;;;;5042804;28;20096;-78
2022/03/28 07:29:39;;;;;;;48.90;28.38;;;13.90;1.00;;;;;;5043254;28;20536;-75
2022/03/28 07:32:08;;;;;;;51.20;26.45;;;14.30;1.00;;;;;;5038525;28;20452;-77
2022/03/28 07:34:38;;;;;;;44.25;24.67;;;14.40;1.00;;;;;;5037469;28;20046;-78
2022/03/28 07:37:06;;;;;;;37.63;23.65;;;14.40;1.00;;;;;;5038059;28;20046;-78
2022/03/28 07:39:38;;;;;;;46.33;25.73;;;14.60;1.00;;;;;;5039563;28;20128;-77
2022/03/28 07:42:07;;;;;;;37.00;24.38;;;14.70;1.00;;;;;;5034025;28;20077;-76
2022/03/28 07:44:35;;;;;;;43.53;26.48;;;14.90;1.00;;;;;;5034719;28;20040;-76
2022/03/28 07:47:04;;;;;;;44.50;29.42;;;14.90;1.00;;;;;;5038626;28;20045;-77
2022/03/28 07:49:31;;;;;;;54.63;31.33;;;15.00;1.00;;;;;;5045758;28;20045;-77
2022/03/28 07:51:59;;;;;;;46.83;28.58;;;15.20;1.00;;;;;;5045443;28;20037;-77
2022/03/28 07:54:26;;;;;;;40.95;24.77;;;15.30;1.00;;;;;;5043437;28;20120;-77
2022/03/28 07:56:55;;;;;;;42.22;25.95;;;15.50;1.00;;;;;;5038936;28;20107;-76
2022/03/28 07:59:23;;;;;;;43.17;25.05;;;15.60;1.00;;;;;;5041381;28;20550;-77
2022/03/28 08:01:51;;;;;;;47.10;27.20;;;15.60;1.00;;;;;;5040754;28;20060;-78
2022/03/28 08:04:18;;;;;;;48.38;30.52;;;15.50;1.00;;;;;;5038477;28;20053;-78
2022/03/28 08:06:46;;;;;;;44.47;29.73;;;15.40;1.00;;;;;;5040237;28;20041;-77
2022/03/28 08:09:14;;;;;;;50.13;28.63;;;15.60;1.00;;;;;;5037029;28;20095;-77
2022/03/28 08:11:42;;;;;;;42.15;28.42;;;15.80;1.00;;;;;;5037704;28;20056;-77
2022/03/28 08:14:11;;;;;;;50.42;30.63;;;15.90;1.00;;;;;;5036795;28;20159;-77
2022/03/28 08:16:38;;;;;;;44.17;30.17;;;16.10;1.00;;;;;;5038859;28;20065;-78
2022/03/28 08:19:06;;;;;;;50.85;33.88;;;16.30;1.00;;;;;;5040847;28;20128;-78
2022/03/28 08:21:33;;;;;;;49.70;31.30;;;16.40;1.00;;;;;;5039648;28;20483;-77
2022/03/28 08:24:01;;;;;;;47.60;31.50;;;16.50;1.00;;;;;;5041237;28;20041;-77
2022/03/28 08:26:29;;;;;;;53.88;34.10;;;16.70;1.00;;;;;;5040459;28;20038;-76
2022/03/28 08:28:57;;;;;;;47.53;34.08;;;16.90;1.00;;;;;;5042852;28;20063;-77
2022/03/28 08:31:25;;;;;;;51.17;34.75;;;17.10;1.00;;;;;;5043279;28;20067;-76
2022/03/28 08:33:53;;;;;;;56.83;35.75;;;17.10;1.00;;;;;;5046713;28;20054;-78
2022/03/28 08:36:20;;;;;;;52.33;34.70;;;17.10;1.00;;;;;;5040722;28;20045;-78
2022/03/28 08:38:48;;;;;;;53.58;38.40;;;17.20;1.00;;;;;;5041284;28;20124;-78
2022/03/28 08:41:17;;;;;;;57.33;38.08;;;17.40;1.00;;;;;;5039315;28;20045;-77
2022/03/28 08:43:44;;;;;;;53.60;36.28;;;17.70;1.00;;;;;;5037808;28;20046;-77
2022/03/28 08:46:12;;;;;;;55.10;34.80;;;17.90;1.00;;;;;;5038890;28;20060;-77
2022/03/28 08:48:41;;;;;;;71.20;38.17;;;17.90;1.00;;;;;;5038840;28;20056;-77
2022/03/28 08:51:09;;;;;;;62.05;36.20;;;18.10;1.00;;;;;;5040146;28;20480;-77
2022/03/28 08:53:38;;;;;;;52.53;34.90;;;18.30;1.00;;;;;;5036897;28;20041;-78
2022/03/28 08:56:07;;;;;;;53.20;33.53;;;18.40;1.00;;;;;;5037340;28;20033;-77
2022/03/28 08:58:35;;;;;;;47.83;32.75;;;18.40;1.00;;;;;;5035537;28;20056;-77
2022/03/28 09:01:04;;;;;;;51.50;34.15;;;18.50;1.00;;;;;;5037627;28;20045;-77
2022/03/28 09:03:44;;;;;;;50.35;32.72;;;18.50;1.00;;;;;;5037511;28;20045;-76
2022/03/28 09:06:30;;;;;;;46.03;32.45;;;18.50;1.00;;;;;;5037043;28;20041;-77
2022/03/28 09:09:11;;;;;;;43.08;28.63;;;18.50;1.00;;;;;;5037671;28;20057;-77
2022/03/28 09:11:39;;;;;;;40.70;28.88;;;18.50;1.00;;;;;;5037257;28;20120;-78
2022/03/28 09:14:07;;;;;;;31.65;20.52;;;18.50;1.00;;;;;;5040678;28;20093;-77
2022/03/28 09:16:34;;;;;;;25.75;16.52;;;18.50;1.00;;;;;;5051075;28;20046;-77
2022/03/28 09:19:09;;;;;;;29.17;15.90;;;18.70;1.00;;;;;;5049519;28;20059;-77
2022/03/28 09:21:37;;;;;;;23.45;15.80;;;18.80;1.00;;;;;;5039596;28;20071;-77
2022/03/28 09:24:10;;;;;;;26.33;18.88;;;18.90;1.00;;;;;;5040340;28;20045;-76
2022/03/28 09:26:39;;;;;;;25.63;15.60;;;19.00;1.00;;;;;;5036875;28;20056;-77
2022/03/28 09:29:07;;;;;;;28.83;14.60;;;19.10;1.00;;;;;;5035645;28;20046;-77
2022/03/28 09:31:37;;;;;;;26.58;16.60;;;19.10;1.00;;;;;;5036723;28;20488;-78
2022/03/28 09:34:09;;;;;;;27.02;14.43;;;19.30;1.00;;;;;;5036420;28;20057;-77
2022/03/28 09:36:48;;;;;;;25.25;14.73;;;19.50;1.00;;;;;;5035196;28;20155;-77
2022/03/28 09:39:21;;;;;;;27.63;15.32;;;19.50;1.00;;;;;;5036531;28;20377;-76
2022/03/28 09:42:01;;;;;;;23.08;15.38;;;19.60;1.00;;;;;;5040224;28;20085;-78
2022/03/28 09:44:37;;;;;;;20.00;12.85;;;19.70;1.00;;;;;;5037354;28;20404;-77
2022/03/28 09:47:08;;;;;;;24.20;12.43;;;19.80;1.00;;;;;;5036227;28;20046;-76
2022/03/28 09:49:38;;;;;;;21.83;12.55;;;19.70;1.00;;;;;;5035486;28;20049;-76
2022/03/28 09:52:08;;;;;;;20.55;12.02;;;19.70;1.00;;;;;;5035071;28;20059;-77
2022/03/28 09:54:51;;;;;;;18.52;11.20;;;19.80;1.00;;;;;;5036744;28;20064;-77
2022/03/28 09:57:22;;;;;;;20.50;14.23;;;19.80;1.00;;;;;;5036596;28;20456;-77
2022/03/28 09:59:50;;;;;;;22.05;15.63;;;20.00;1.00;;;;;;5033783;28;20554;-77
2022/03/28 10:02:24;;;;;;;29.17;16.52;;;20.10;1.00;;;;;;5035890;28;20046;-78
2022/03/28 10:04:54;;;;;;;19.20;13.20;;;20.10;1.00;;;;;;5037640;28;20056;-76
2022/03/28 10:07:23;;;;;;;18.23;12.52;;;20.10;1.00;;;;;;5037443;28;20113;-78
2022/03/28 10:09:52;;;;;;;19.92;13.45;;;20.10;1.00;;;;;;5034117;28;20049;-77
2022/03/28 10:12:23;;;;;;;26.90;17.75;;;19.90;1.00;;;;;;5036632;28;20037;-77
2022/03/28 10:14:54;;;;;;;21.38;13.88;;;20.10;1.00;;;;;;5034698;28;20493;-77
2022/03/28 10:17:24;;;;;;;24.45;14.70;;;20.20;1.00;;;;;;5034794;28;20087;-75
2022/03/28 10:19:53;;;;;;;29.73;16.33;;;20.30;1.00;;;;;;5036138;28;20072;-77
2022/03/28 10:22:26;;;;;;;29.38;14.18;;;20.40;1.00;;;;;;5035923;28;20037;-77
2022/03/28 10:24:56;;;;;;;21.75;12.05;;;20.40;1.00;;;;;;5033565;28;20423;-79
2022/03/28 10:27:24;;;;;;;21.67;13.40;;;20.40;1.00;;;;;;5036703;28;20092;-77
2022/03/28 10:29:53;;;;;;;19.38;13.57;;;20.50;1.00;;;;;;5034977;28;20049;-76
2022/03/28 10:32:21;;;;;;;23.70;15.25;;;20.30;1.00;;;;;;5035652;28;20037;-77
2022/03/28 10:34:52;;;;;;;21.27;14.02;;;20.40;1.00;;;;;;5034234;28;20057;-76
2022/03/28 10:37:29;;;;;;;20.85;13.25;;;20.40;1.00;;;;;;5035137;28;20041;-78
2022/03/28 10:40:23;;;;;;;18.25;13.20;;;20.20;1.00;;;;;;5034129;28;20187;-77
2022/03/28 10:42:55;;;;;;;24.08;14.05;;;20.10;1.00;;;;;;5035249;28;20072;-78
2022/03/28 10:45:31;;;;;;;20.65;13.32;;;20.10;1.00;;;;;;5038156;28;20053;-79
2022/03/28 10:47:59;;;;;;;25.77;15.13;;;20.30;1.00;;;;;;5039056;28;20045;-78
2022/03/28 10:50:29;;;;;;;22.48;15.60;;;20.50;1.00;;;;;;5039841;28;20119;-76
2022/03/28 10:53:16;;;;;;;22.38;15.40;;;20.50;1.00;;;;;;5039620;28;20046;-78
2022/03/28 10:55:49;;;;;;;22.65;16.52;;;20.40;1.00;;;;;;5041016;28;20483;-79
2022/03/28 10:58:20;;;;;;;24.58;15.60;;;20.50;1.00;;;;;;5040143;28;20141;-77
2022/03/28 11:01:29;;;;;;;29.20;18.02;;;20.60;1.00;;;;;;5040022;28;20045;-78
2022/03/28 11:04:00;;;;;;;26.60;17.40;;;20.70;1.00;;;;;;5039031;28;20407;-78
2022/03/28 11:06:59;;;;;;;23.30;15.05;;;20.80;1.00;;;;;;5038748;28;20385;-77
2022/03/28 11:09:47;;;;;;;25.42;14.93;;;20.60;1.00;;;;;;5040118;28;20037;-78
2022/03/28 11:12:16;;;;;;;24.35;15.77;;;20.70;1.00;;;;;;5039655;28;20415;-77
2022/03/28 11:14:46;;;;;;;26.23;16.63;;;20.90;1.00;;;;;;5042391;28;20491;-78
2022/03/28 11:17:18;;;;;;;22.33;14.80;;;21.00;1.00;;;;;;5039990;28;20068;-76
2022/03/28 11:19:56;;;;;;;22.33;13.80;;;21.00;1.00;;;;;;5039974;28;20045;-78
2022/03/28 11:22:55;;;;;;;23.15;14.48;;;21.10;1.00;;;;;;5038165;28;20045;-77
2022/03/28 11:25:44;;;;;;;24.45;13.73;;;21.20;1.00;;;;;;4986449;28;20468;-77
2022/03/28 11:28:25;;;;;;;19.48;13.23;;;21.20;1.00;;;;;;4987500;28;20110;-77
2022/03/28 11:30:58;;;;;;;20.20;14.10;;;21.00;1.00;;;;;;4985822;28;20134;-77
2022/03/28 11:33:37;;;;;;;22.60;13.57;;;20.90;1.00;;;;;;5003317;28;20110;-78
2022/03/28 11:36:06;;;;;;;23.13;13.13;;;21.00;1.00;;;;;;4986229;28;20130;-78
2022/03/28 11:38:37;;;;;;;23.65;15.73;;;21.00;1.00;;;;;;5007438;28;20141;-76
2022/03/28 11:41:07;;;;;;;26.73;15.80;;;21.10;1.00;;;;;;4998053;28;20054;-76
2022/03/28 11:43:37;;;;;;;22.10;13.75;;;21.20;1.00;;;;;;4979445;28;20070;-75
2022/03/28 11:46:13;;;;;;;24.17;14.75;;;21.20;1.00;;;;;;4995270;28;20625;-76
2022/03/28 11:48:52;;;;;;;29.02;16.70;;;21.20;1.00;;;;;;4994957;28;20050;-76
2022/03/28 11:51:21;;;;;;;22.15;13.70;;;21.40;1.00;;;;;;4978823;28;20048;-76
2022/03/28 11:53:48;;;;;;;23.95;13.30;;;21.40;1.00;;;;;;4995006;28;20054;-77
2022/03/28 11:56:26;;;;;;;19.75;13.05;;;21.30;1.00;;;;;;4978194;28;20133;-75
2022/03/28 11:59:01;;;;;;;20.70;13.77;;;21.20;1.00;;;;;;5005324;28;20065;-76
2022/03/28 12:01:31;;;;;;;23.42;13.85;;;21.30;1.00;;;;;;5033457;28;20520;-76
2022/03/28 12:04:00;;;;;;;19.20;13.65;;;21.20;1.00;;;;;;5035421;28;20115;-75
2022/03/28 12:06:29;;;;;;;23.30;14.80;;;21.20;1.00;;;;;;5033310;28;20088;-75
2022/03/28 12:08:57;;;;;;;22.63;14.05;;;21.20;1.00;;;;;;5016447;28;20045;-75
2022/03/28 12:11:26;;;;;;;21.70;13.50;;;21.10;1.00;;;;;;5016499;28;20125;-76
2022/03/28 12:13:54;;;;;;;20.40;14.15;;;21.00;1.00;;;;;;5022008;28;20060;-76
2022/03/28 12:16:22;;;;;;;16.15;12.05;;;21.00;1.00;;;;;;5035199;28;20040;-75
2022/03/28 12:18:51;;;;;;;18.33;12.23;;;21.10;1.00;;;;;;5034773;28;20496;-76
2022/03/28 12:21:20;;;;;;;19.13;11.95;;;21.10;1.00;;;;;;5029633;28;20053;-76
2022/03/28 12:23:47;;;;;;;23.70;12.52;;;21.10;1.00;;;;;;5023415;28;20575;-76
2022/03/28 12:26:15;;;;;;;20.05;12.68;;;21.20;1.00;;;;;;5030318;28;20121;-76
2022/03/28 12:28:46;;;;;;;16.45;11.75;;;21.30;1.00;;;;;;5034146;28;20136;-76
2022/03/28 12:31:14;;;;;;;23.10;12.55;;;21.40;1.00;;;;;;5014747;28;20057;-77
2022/03/28 12:33:43;;;;;;;17.35;11.40;;;21.50;1.00;;;;;;5033860;28;20048;-76
2022/03/28 12:36:12;;;;;;;20.67;11.73;;;21.50;1.00;;;;;;5023119;28;20045;-76
2022/03/28 12:38:41;;;;;;;17.83;12.13;;;21.40;1.00;;;;;;5031392;28;20069;-76
2022/03/28 12:41:11;;;;;;;14.55;11.00;;;21.40;1.00;;;;;;5033643;28;20053;-76
2022/03/28 12:43:39;;;;;;;20.30;12.10;;;21.40;1.00;;;;;;5039783;28;20033;-76
2022/03/28 12:46:10;;;;;;;19.42;11.95;;;21.40;1.00;;;;;;5034591;28;20553;-77
2022/03/28 12:48:39;;;;;;;20.20;12.23;;;21.30;1.00;;;;;;5034041;28;20045;-76
2022/03/28 12:51:08;;;;;;;22.60;14.35;;;21.20;1.00;;;;;;5032110;28;20052;-77
2022/03/28 12:53:37;;;;;;;16.70;8.90;;;21.20;1.00;;;;;;5035082;28;20040;-77